createdAt,value
2022-11-01T00:00:02.489Z,11.8
2022-11-01T00:20:02.362Z,11.7
2022-11-01T00:40:02.539Z,11.7
2022-11-01T01:00:02.899Z,11.7
2022-11-01T01:20:02.804Z,11.7
2022-11-01T01:40:02.156Z,11.5
2022-11-01T02:00:02.563Z,11.5
2022-11-01T02:20:02.227Z,11.6
2022-11-01T02:40:02.523Z,11.5
2022-11-01T03:00:04.147Z,11.4
2022-11-01T03:20:02.787Z,11.2
2022-11-01T03:40:02.147Z,11.1
2022-11-01T04:00:02.515Z,10.8
2022-11-01T04:20:03.288Z,10.4
2022-11-01T04:40:02.735Z,10.1
2022-11-01T05:00:03.233Z,9.9
2022-11-01T05:20:02.648Z,9.7
2022-11-01T05:40:03.049Z,9.5
2022-11-01T06:00:02.554Z,9.5
2022-11-01T06:20:02.273Z,9.5
2022-11-01T06:40:02.678Z,9.9
2022-11-01T07:00:03.040Z,10.2
2022-11-01T07:20:02.457Z,10.7
2022-11-01T07:40:03.141Z,11
2022-11-01T08:00:02.580Z,11.2
2022-11-01T08:20:02.283Z,11.5
2022-11-01T08:40:02.894Z,11.9
2022-11-01T09:00:02.420Z,12.5
2022-11-01T09:20:02.267Z,13.1
2022-11-01T09:40:02.627Z,14
2022-11-01T10:00:03.067Z,14.3
2022-11-01T10:20:02.952Z,14.1
2022-11-01T10:40:06.168Z,14.1
2022-11-01T11:00:02.988Z,14.4
2022-11-01T11:20:02.742Z,14.7
2022-11-01T11:40:03.192Z,16
2022-11-01T12:00:02.655Z,16.2
2022-11-01T12:20:02.764Z,16.2
2022-11-01T12:40:02.342Z,16
2022-11-01T13:00:02.718Z,15.8
2022-11-01T13:20:02.682Z,15.6
2022-11-01T13:40:03.079Z,15.6
2022-11-01T14:00:03.550Z,15.7
2022-11-01T14:20:02.253Z,15.9
2022-11-01T14:40:02.780Z,15.6
2022-11-01T15:00:02.291Z,15.4
2022-11-01T15:20:02.745Z,15.2
2022-11-01T15:40:03.135Z,14.9
2022-11-01T16:00:02.549Z,14.6
2022-11-01T16:20:02.265Z,14.2
2022-11-01T16:40:02.891Z,13.7
2022-11-01T17:00:02.603Z,13.2
2022-11-01T17:20:02.622Z,12.7
2022-11-01T17:40:03.028Z,12.3
2022-11-01T18:00:02.554Z,12.1
2022-11-01T18:20:03.515Z,12.2
2022-11-01T18:40:02.966Z,12.2
2022-11-01T19:00:03.574Z,11.9
2022-11-01T19:20:04.519Z,11.6
2022-11-01T19:40:03.706Z,11.2
2022-11-01T20:00:03.480Z,10.8
2022-11-01T20:20:03.827Z,10.6
2022-11-01T20:40:03.637Z,10.6
2022-11-01T21:00:03.118Z,10.2
2022-11-01T21:20:07.837Z,9.9
2022-11-01T21:40:05.916Z,9.5
2022-11-01T22:00:02.842Z,9.2
2022-11-01T22:20:02.497Z,8.9
2022-11-01T22:40:03.044Z,8.6
2022-11-01T23:00:02.524Z,8.3
2022-11-01T23:20:03.067Z,8
2022-11-01T23:40:02.596Z,7.8
